Time;durP1;ratioP1;P1;durP2;ratioP2;P2;SDS_P1;SDS_P2;PMS_P1;PMS_P2;Temp;Humidity;BMP_temperature;BMP_pressure;BME280_temperature;BME280_humidity;BME280_pressure;Samples;Min_cycle;Max_cycle;Signal;HPM_P1;HPM_P2
2022/05/26 00:01:42;;;;;;;3.00;2.37;;;;;;;15.77;68.05;100079.22;4362279;32;34312;-70
2022/05/26 00:04:10;;;;;;;3.60;2.40;;;;;;;16.06;67.05;100078.63;4361697;32;34327;-67
2022/05/26 00:06:37;;;;;;;2.83;2.20;;;;;;;16.13;66.20;100079.97;4362014;32;33304;-70
2022/05/26 00:09:05;;;;;;;3.40;2.30;;;;;;;15.38;69.12;100082.47;4362323;32;34654;-70
2022/05/26 00:11:35;;;;;;;3.55;2.53;;;;;;;15.71;67.90;100088.50;4362161;32;35008;-70
2022/05/26 00:14:09;;;;;;;2.75;2.10;;;;;;;15.97;67.15;100083.84;4362259;32;34076;-69
2022/05/26 00:16:41;;;;;;;3.45;2.17;;;;;;;15.95;66.94;100095.06;4349502;32;34348;-69
2022/05/26 00:19:11;;;;;;;3.33;2.40;;;;;;;15.86;67.55;100090.44;4348898;32;34905;-69
2022/05/26 00:21:39;;;;;;;3.10;2.45;;;;;;;15.64;67.75;100091.50;4361639;32;34212;-68
2022/05/26 00:24:07;;;;;;;3.17;2.47;;;;;;;15.66;67.24;100100.25;4348392;32;34533;-68
2022/05/26 00:26:35;;;;;;;3.55;2.25;;;;;;;15.57;67.72;100096.41;4362058;32;34202;-69
2022/05/26 00:29:03;;;;;;;3.62;2.47;;;;;;;15.37;68.73;100097.22;4361593;32;34077;-67
2022/05/26 00:31:30;;;;;;;4.57;2.75;;;;;;;15.25;68.69;100100.22;4361732;32;34282;-68
2022/05/26 00:33:58;;;;;;;3.97;2.50;;;;;;;15.69;67.28;100105.16;4361232;32;34125;-69
2022/05/26 00:36:39;;;;;;;4.75;2.80;;;;;;;15.49;68.02;100116.13;4361669;32;33653;-69
2022/05/26 00:39:07;;;;;;;3.03;2.40;;;;;;;15.29;68.17;100109.53;4362182;32;34921;-69
2022/05/26 00:41:38;;;;;;;4.97;2.47;;;;;;;15.21;69.11;100110.06;4361975;32;34179;-70
2022/05/26 00:44:06;;;;;;;3.45;2.65;;;;;;;15.15;69.23;100113.88;4361699;32;33947;-67
2022/05/26 00:46:48;;;;;;;3.53;2.53;;;;;;;15.05;69.80;100111.91;4348260;32;33638;-67
2022/05/26 00:49:23;;;;;;;4.18;2.83;;;;;;;15.37;68.34;100116.38;4348593;32;34070;-68
2022/05/26 00:51:51;;;;;;;3.62;2.80;;;;;;;14.94;70.08;100111.06;4348099;32;34871;-69
2022/05/26 00:54:21;;;;;;;3.87;2.58;;;;;;;15.74;67.08;100115.31;4347928;32;34721;-67
2022/05/26 00:56:54;;;;;;;3.90;2.45;;;;;;;15.30;68.28;100122.09;4348314;32;33520;-68
2022/05/26 00:59:31;;;;;;;3.53;2.65;;;;;;;15.34;67.89;100122.37;4361616;32;34924;-68
2022/05/26 01:01:58;;;;;;;4.80;2.30;;;;;;;15.61;67.07;100121.31;4361719;32;34302;-69
2022/05/26 01:04:30;;;;;;;2.90;2.35;;;;;;;15.66;66.71;100132.25;4361474;32;34198;-68
2022/05/26 01:07:05;;;;;;;3.75;2.58;;;;;;;15.88;65.91;100132.00;4356147;32;34031;-68
2022/05/26 01:09:33;;;;;;;3.10;2.22;;;;;;;15.70;65.98;100131.44;4348432;32;34869;-68
2022/05/26 01:12:01;;;;;;;3.83;2.87;;;;;;;15.61;66.37;100133.06;4361469;32;33972;-69
2022/05/26 01:14:31;;;;;;;3.70;2.75;;;;;;;15.76;65.75;100127.63;4361669;32;35053;-68
2022/05/26 01:17:25;;;;;;;4.28;2.53;;;;;;;15.51;66.01;100141.28;4346598;33;33538;-69
2022/05/26 01:20:25;;;;;;;3.72;2.75;;;;;;;15.44;66.58;100136.03;4333512;33;34995;-68
2022/05/26 01:23:18;;;;;;;4.25;2.85;;;;;;;15.45;66.55;100136.91;4346484;33;34350;-67
2022/05/26 01:26:07;;;;;;;3.28;2.45;;;;;;;15.55;66.25;100131.41;4346732;33;34319;-68
2022/05/26 01:29:09;;;;;;;4.12;2.90;;;;;;;15.69;65.56;100132.53;4347798;32;33519;-69
2022/05/26 01:32:09;;;;;;;3.42;2.55;;;;;;;15.86;65.05;100131.47;4361811;32;34923;-69
2022/05/26 01:35:12;;;;;;;3.50;2.62;;;;;;;16.07;64.12;100126.78;4361141;32;34240;-69
2022/05/26 01:38:05;;;;;;;3.80;2.80;;;;;;;16.08;63.84;100126.50;4348451;32;34504;-69
2022/05/26 01:40:53;;;;;;;3.45;2.55;;;;;;;15.79;64.68;100135.28;4360447;32;34179;-68
2022/05/26 01:43:43;;;;;;;3.62;2.62;;;;;;;15.95;64.50;100132.53;4347176;32;33879;-68
2022/05/26 01:46:19;;;;;;;3.72;2.50;;;;;;;15.45;65.90;100142.37;4361220;32;34217;-69
2022/05/26 01:48:55;;;;;;;4.12;2.80;;;;;;;15.66;65.14;100149.50;4348320;32;33903;-69
2022/05/26 01:51:33;;;;;;;3.25;2.45;;;;;;;15.43;65.67;100142.63;4347885;32;33514;-68
2022/05/26 01:54:29;;;;;;;3.78;2.53;;;;;;;15.39;65.78;100153.28;4347710;32;34095;-68
2022/05/26 01:57:07;;;;;;;4.55;3.00;;;;;;;15.29;66.34;100147.81;4359356;32;34119;-67
2022/05/26 01:59:40;;;;;;;3.92;2.75;;;;;;;15.26;66.32;100156.53;4361518;32;34606;-69
2022/05/26 02:02:11;;;;;;;4.22;2.75;;;;;;;14.68;68.39;100162.06;4348107;32;33554;-67
2022/05/26 02:04:50;;;;;;;4.70;3.30;;;;;;;14.97;67.47;100153.47;4361101;32;34939;-67
2022/05/26 02:07:27;;;;;;;4.47;2.90;;;;;;;15.38;65.92;100159.03;4361435;32;33819;-68
2022/05/26 02:09:56;;;;;;;4.57;3.35;;;;;;;15.38;66.12;100165.31;4347953;32;34687;-69
2022/05/26 02:12:36;;;;;;;4.47;3.03;;;;;;;15.17;66.60;100164.44;4347750;32;33849;-68
2022/05/26 02:15:27;;;;;;;4.45;3.40;;;;;;;15.32;66.14;100169.13;4345027;33;34381;-68
2022/05/26 02:18:02;;;;;;;4.53;3.35;;;;;;;15.20;66.65;100174.00;4333015;33;34650;-68
2022/05/26 02:20:50;;;;;;;5.95;3.42;;;;;;;15.28;66.59;100173.47;4333138;33;33924;-69
2022/05/26 02:23:24;;;;;;;4.03;3.20;;;;;;;14.50;69.23;100181.59;4332865;33;34352;-68
2022/05/26 02:25:51;;;;;;;6.45;4.15;;;;;;;14.57;69.30;100179.50;4333364;33;35215;-69
2022/05/26 02:28:19;;;;;;;5.50;4.30;;;;;;;14.73;68.44;100181.22;4352807;32;33876;-67
2022/05/26 02:30:47;;;;;;;4.72;3.35;;;;;;;14.92;68.01;100181.59;4347706;32;33972;-73
2022/05/26 02:33:16;;;;;;;5.95;3.97;;;;;;;14.89;68.29;100182.09;4361123;32;34122;-70
2022/05/26 02:35:48;;;;;;;5.37;3.75;;;;;;;15.17;67.16;100190.94;4347715;32;33735;-68
2022/05/26 02:38:22;;;;;;;6.47;3.80;;;;;;;14.78;68.52;100185.87;4361766;32;34083;-69
2022/05/26 02:40:54;;;;;;;5.37;4.10;;;;;;;14.80;68.17;100189.16;4361841;32;33938;-69
2022/05/26 02:43:26;;;;;;;5.55;3.90;;;;;;;13.95;72.01;100189.13;4354423;32;34599;-66
2022/05/26 02:45:59;;;;;;;5.72;4.07;;;;;;;14.29;70.87;100197.84;4348117;32;34034;-66
2022/05/26 02:49:01;;;;;;;6.53;4.45;;;;;;;14.61;69.67;100193.44;4361808;32;35213;-67
2022/05/26 02:51:34;;;;;;;5.12;3.95;;;;;;;14.90;68.68;100191.97;4361108;32;34858;-69
2022/05/26 02:54:19;;;;;;;5.57;4.27;;;;;;;14.94;68.42;100193.03;4361092;32;33887;-66
2022/05/26 02:57:13;;;;;;;5.90;4.27;;;;;;;14.95;68.43;100193.88;4347596;32;34547;-67
2022/05/26 03:00:06;;;;;;;6.00;4.35;;;;;;;14.96;68.10;100192.78;4347095;33;33790;-68
2022/05/26 03:02:54;;;;;;;6.30;4.45;;;;;;;15.16;67.56;100192.03;4346261;33;34703;-68
2022/05/26 03:05:30;;;;;;;6.68;4.85;;;;;;;15.13;67.66;100193.41;4346687;33;33164;-69
2022/05/26 03:08:01;;;;;;;6.45;4.62;;;;;;;14.95;68.30;100194.69;4333128;33;34065;-68
2022/05/26 03:10:31;;;;;;;6.00;4.37;;;;;;;15.27;67.10;100201.09;4333230;33;34459;-68
2022/05/26 03:12:59;;;;;;;6.03;4.53;;;;;;;15.30;66.82;100204.13;4347577;32;33532;-67
2022/05/26 03:15:29;;;;;;;6.20;4.43;;;;;;;15.20;67.13;100201.34;4359815;32;33110;-66
2022/05/26 03:18:01;;;;;;;6.40;4.18;;;;;;;15.21;67.05;100203.00;4357881;32;34041;-67
2022/05/26 03:20:29;;;;;;;6.90;4.30;;;;;;;15.05;67.65;100195.81;4353883;32;35175;-69
2022/05/26 03:22:56;;;;;;;5.78;4.10;;;;;;;14.93;67.89;100204.25;4357007;32;34052;-68
2022/05/26 03:25:24;;;;;;;5.93;4.10;;;;;;;15.14;66.70;100216.91;4358165;32;32397;-66
2022/05/26 03:27:52;;;;;;;5.30;3.47;;;;;;;15.36;66.38;100216.72;4353079;32;33821;-66
2022/05/26 03:30:20;;;;;;;5.00;3.80;;;;;;;15.34;66.46;100226.28;4355897;32;34160;-66
2022/05/26 03:32:48;;;;;;;6.07;3.83;;;;;;;15.62;66.42;100229.63;4357332;32;33952;-66
2022/05/26 03:40:57;;;;;;;4.72;3.58;;;;;;;16.50;62.52;100234.88;4354016;32;34080;-67
2022/05/26 03:43:33;;;;;;;5.28;3.35;;;;;;;16.58;61.70;100237.03;4354786;32;34799;-66
2022/05/26 03:46:02;;;;;;;5.80;3.90;;;;;;;17.16;60.25;100233.87;4351584;32;34238;-67
2022/05/26 03:48:30;;;;;;;5.22;3.58;;;;;;;16.88;60.44;100242.78;4357455;32;34003;-66
2022/05/26 03:50:58;;;;;;;4.53;3.15;;;;;;;17.19;59.54;100243.47;4360891;32;35161;-67
2022/05/26 03:53:26;;;;;;;5.87;3.60;;;;;;;17.60;58.76;100244.09;4347620;32;33816;-67
2022/05/26 03:55:54;;;;;;;5.62;3.92;;;;;;;17.50;58.86;100246.09;4336004;32;34227;-68
2022/05/26 03:58:22;;;;;;;5.62;3.85;;;;;;;18.17;56.60;100244.53;4360961;32;33828;-67
2022/05/26 04:00:50;;;;;;;4.97;3.78;;;;;;;17.71;58.55;100238.53;4360855;32;34319;-68
2022/05/26 04:03:18;;;;;;;5.30;3.78;;;;;;;17.98;57.13;100255.41;4361606;32;34764;-66
2022/05/26 04:05:46;;;;;;;5.43;3.80;;;;;;;18.18;57.24;100248.91;4354997;32;33266;-67
2022/05/26 04:08:13;;;;;;;5.53;4.45;;;;;;;18.25;57.05;100254.09;4357170;32;34867;-69
2022/05/26 04:10:41;;;;;;;5.40;3.65;;;;;;;18.70;55.33;100260.25;4355385;32;33945;-68
2022/05/26 04:13:09;;;;;;;5.72;4.03;;;;;;;19.24;54.21;100263.81;4358781;32;34032;-66
2022/05/26 04:15:37;;;;;;;5.82;3.85;;;;;;;19.15;54.85;100271.09;4360367;32;34296;-69
2022/05/26 04:18:04;;;;;;;5.18;3.58;;;;;;;19.50;53.65;100271.75;4363311;32;34934;-67
2022/05/26 04:20:32;;;;;;;5.80;3.78;;;;;;;20.39;50.68;100279.25;4362958;32;33991;-68
2022/05/26 04:22:59;;;;;;;5.20;3.75;;;;;;;20.96;48.97;100279.91;4363328;32;34702;-68
2022/05/26 04:25:28;;;;;;;4.50;3.50;;;;;;;21.43;48.52;100277.87;4363649;32;33510;-69
2022/05/26 04:27:56;;;;;;;4.50;3.33;;;;;;;21.75;46.46;100278.03;4357784;32;33850;-68
2022/05/26 04:30:24;;;;;;;4.55;3.10;;;;;;;21.96;46.55;100283.91;4363350;32;34162;-69
2022/05/26 04:32:52;;;;;;;4.82;3.70;;;;;;;22.18;45.92;100283.94;4362418;32;34076;-68
2022/05/26 04:35:19;;;;;;;4.05;3.10;;;;;;;20.96;48.85;100282.66;4360955;32;34089;-68
2022/05/26 04:37:47;;;;;;;3.97;2.78;;;;;;;21.44;47.93;100286.97;4359611;32;33982;-66
2022/05/26 04:40:15;;;;;;;4.12;3.17;;;;;;;22.06;45.76;100290.00;4362095;32;34468;-67
2022/05/26 04:42:42;;;;;;;4.35;3.10;;;;;;;21.96;46.25;100289.44;4362174;32;33995;-67
2022/05/26 04:45:12;;;;;;;3.65;2.42;;;;;;;21.89;46.32;100284.34;4362064;32;34313;-68
2022/05/26 04:47:40;;;;;;;4.50;2.87;;;;;;;22.44;45.37;100294.37;4362175;32;34703;-67
2022/05/26 04:50:08;;;;;;;4.00;2.83;;;;;;;22.54;44.67;100296.88;4361438;32;34288;-68
2022/05/26 04:52:36;;;;;;;3.62;2.72;;;;;;;22.53;44.52;100290.53;4361435;32;33660;-68
2022/05/26 04:55:05;;;;;;;3.90;2.70;;;;;;;22.79;43.77;100291.84;4362172;32;33363;-68
2022/05/26 04:57:33;;;;;;;3.55;2.70;;;;;;;21.72;47.32;100293.28;4362147;32;33875;-69
2022/05/26 05:00:00;;;;;;;4.05;2.40;;;;;;;21.31;48.89;100297.69;4362490;32;34276;-69
2022/05/26 05:02:29;;;;;;;3.35;2.25;;;;;;;22.05;45.59;100304.97;4362169;32;33616;-69
2022/05/26 05:04:57;;;;;;;3.53;2.40;;;;;;;21.71;46.18;100314.56;4361534;32;34292;-68
2022/05/26 05:07:24;;;;;;;4.80;2.70;;;;;;;21.81;46.87;100316.25;4361321;32;34037;-68
2022/05/26 05:09:53;;;;;;;3.40;2.33;;;;;;;21.85;45.21;100322.81;4361923;32;34193;-68
2022/05/26 05:12:23;;;;;;;2.83;2.10;;;;;;;21.16;48.81;100322.81;4362098;32;34788;-68
2022/05/26 05:14:53;;;;;;;3.22;2.47;;;;;;;22.43;44.08;100315.69;4360238;32;34232;-67
2022/05/26 05:17:22;;;;;;;2.85;2.12;;;;;;;22.63;43.47;100319.88;4361937;32;33720;-66
2022/05/26 05:19:50;;;;;;;2.53;1.98;;;;;;;21.64;48.67;100322.44;4347990;32;34535;-67
2022/05/26 05:22:23;;;;;;;2.75;1.90;;;;;;;22.01;46.28;100325.22;4361613;32;34828;-67
2022/05/26 05:25:03;;;;;;;3.10;2.30;;;;;;;21.05;48.99;100330.47;4348310;32;34001;-68
2022/05/26 05:27:35;;;;;;;2.67;2.05;;;;;;;20.98;48.53;100326.50;4362168;32;33747;-68
2022/05/26 05:30:07;;;;;;;3.37;2.40;;;;;;;21.93;46.26;100337.84;4361846;32;33947;-68
2022/05/26 05:32:40;;;;;;;2.72;2.00;;;;;;;20.69;48.77;100331.16;4361773;32;33912;-68
2022/05/26 05:35:14;;;;;;;4.05;1.90;;;;;;;21.41;48.06;100338.09;4361372;32;33530;-67
2022/05/26 05:37:42;;;;;;;3.45;2.28;;;;;;;21.69;46.61;100343.62;4348130;32;33707;-69
2022/05/26 05:40:10;;;;;;;4.32;2.40;;;;;;;21.19;47.88;100346.25;4361932;32;35133;-68
2022/05/26 05:42:39;;;;;;;6.47;2.28;;;;;;;20.71;49.30;100355.63;4361845;32;34704;-68
2022/05/26 05:45:08;;;;;;;2.62;2.15;;;;;;;20.36;49.75;100341.28;4361757;32;34049;-66
2022/05/26 05:47:36;;;;;;;3.05;2.12;;;;;;;20.23;49.95;100347.56;4361951;32;33976;-69
2022/05/26 05:50:04;;;;;;;2.20;1.75;;;;;;;20.82;50.34;100345.25;4361480;32;34343;-68
2022/05/26 05:52:31;;;;;;;2.17;1.75;;;;;;;21.09;47.86;100353.59;4361387;32;34037;-67
2022/05/26 05:55:00;;;;;;;2.47;1.87;;;;;;;21.26;46.85;100358.50;4361490;32;33485;-67
2022/05/26 05:57:35;;;;;;;2.42;1.80;;;;;;;21.18;48.69;100355.66;4361339;32;34644;-69
2022/05/26 06:00:04;;;;;;;2.65;1.60;;;;;;;21.76;46.89;100354.25;4361564;32;35087;-67
2022/05/26 06:02:32;;;;;;;3.15;1.80;;;;;;;21.44;46.51;100354.03;4362037;32;34885;-68
2022/05/26 06:05:04;;;;;;;2.42;2.00;;;;;;;21.71;45.67;100355.97;4362824;32;33898;-68
2022/05/26 06:07:32;;;;;;;2.42;1.65;;;;;;;22.02;45.45;100352.53;4345296;32;34873;-70
2022/05/26 06:09:59;;;;;;;2.05;1.40;;;;;;;22.45;44.04;100351.31;4362770;32;34247;-68
2022/05/26 06:12:27;;;;;;;1.75;1.50;;;;;;;21.77;46.26;100361.38;4362803;32;33934;-67
2022/05/26 06:14:54;;;;;;;2.22;1.60;;;;;;;22.32;43.42;100359.34;4362491;32;34421;-70
2022/05/26 06:17:22;;;;;;;3.05;1.60;;;;;;;23.33;42.41;100365.38;4362439;32;33990;-68
2022/05/26 06:19:50;;;;;;;2.50;1.58;;;;;;;23.70;40.47;100368.75;4362490;32;33634;-68
2022/05/26 06:22:20;;;;;;;2.00;1.37;;;;;;;23.91;41.61;100373.72;4348507;32;33986;-68
2022/05/26 06:24:48;;;;;;;1.98;1.52;;;;;;;23.11;43.33;100382.84;4362037;32;34277;-67
2022/05/26 06:30:11;;;;;;;1.30;1.20;;;;;;;22.26;45.69;100391.00;4356976;32;33805;-71
2022/05/26 06:38:16;;;;;;;1.20;1.10;;;;;;;22.19;43.85;100409.13;4362326;32;33992;-68
2022/05/26 06:40:44;;;;;;;2.05;1.30;;;;;;;23.58;42.49;100406.50;4362644;32;35083;-68
2022/05/26 06:43:11;;;;;;;1.30;1.17;;;;;;;24.65;39.08;100414.41;4362236;32;34797;-67
2022/05/26 06:45:39;;;;;;;2.45;1.50;;;;;;;24.76;38.05;100415.69;4362353;32;32987;-68
2022/05/26 06:48:07;;;;;;;1.30;1.20;;;;;;;23.14;42.14;100412.66;4362359;32;33949;-67
2022/05/26 06:50:35;;;;;;;1.77;1.40;;;;;;;23.97;41.54;100413.97;4362479;32;35033;-69
2022/05/26 06:53:03;;;;;;;2.70;1.25;;;;;;;23.53;43.20;100405.50;4361806;32;34787;-68
2022/05/26 06:55:30;;;;;;;2.60;1.37;;;;;;;24.48;41.39;100406.06;4362091;32;33699;-66
2022/05/26 06:57:58;;;;;;;1.98;1.50;;;;;;;24.41;42.85;100405.75;4362411;32;34640;-67
2022/05/26 07:00:25;;;;;;;3.62;1.75;;;;;;;25.14;40.41;100400.25;4361528;32;35124;-68
2022/05/26 07:02:53;;;;;;;1.40;1.30;;;;;;;26.35;38.03;100398.03;4362458;32;34782;-69
2022/05/26 07:05:20;;;;;;;1.92;1.60;;;;;;;26.66;38.82;100402.41;4362386;32;34295;-68
2022/05/26 07:07:48;;;;;;;1.98;1.52;;;;;;;25.04;39.77;100395.91;4358936;32;34120;-67
2022/05/26 07:10:16;;;;;;;1.30;1.20;;;;;;;24.91;41.51;100388.59;4359951;32;34964;-69
2022/05/26 07:12:43;;;;;;;2.47;1.50;;;;;;;26.15;38.46;100388.53;4361083;32;33508;-68
2022/05/26 07:15:11;;;;;;;1.30;1.20;;;;;;;27.10;38.96;100394.41;4360795;32;33497;-68
2022/05/26 07:17:44;;;;;;;3.25;1.33;;;;;;;27.06;35.47;100396.28;4361065;32;34801;-71
2022/05/26 07:20:12;;;;;;;2.12;1.30;;;;;;;26.84;38.41;100401.06;4360943;32;35013;-68
2022/05/26 07:22:40;;;;;;;1.77;1.40;;;;;;;27.04;37.33;100405.00;4360032;32;33907;-67
2022/05/26 07:25:08;;;;;;;1.83;1.42;;;;;;;25.78;39.76;100407.72;4360907;32;33105;-68
2022/05/26 07:27:36;;;;;;;3.78;1.62;;;;;;;26.40;38.35;100409.78;4360880;32;33585;-70
2022/05/26 07:30:05;;;;;;;2.12;1.52;;;;;;;25.71;40.07;100404.66;4358646;32;34255;-68
2022/05/26 07:32:32;;;;;;;2.05;1.52;;;;;;;26.63;37.89;100412.28;4355024;32;34685;-66
2022/05/26 07:35:00;;;;;;;1.60;1.35;;;;;;;26.53;37.64;100407.09;4359613;32;33297;-68
2022/05/26 07:42:59;;;;;;;2.80;1.87;;;;;;;25.54;42.50;100413.91;4351248;32;33579;-67
2022/05/26 07:45:27;;;;;;;2.60;1.50;;;;;;;25.54;41.11;100425.00;4362650;32;33432;-69
2022/05/26 07:47:55;;;;;;;2.00;1.37;;;;;;;25.48;41.68;100418.00;4362156;32;34005;-70
2022/05/26 07:50:22;;;;;;;2.72;1.65;;;;;;;25.46;40.82;100423.06;4362486;32;34344;-71
2022/05/26 07:52:51;;;;;;;2.50;1.80;;;;;;;25.39;40.43;100429.16;4361163;32;33814;-70
2022/05/26 07:55:19;;;;;;;2.05;1.50;;;;;;;24.93;42.35;100423.19;4363050;32;33558;-68
2022/05/26 07:57:53;;;;;;;2.35;1.65;;;;;;;24.93;42.01;100414.88;4363841;32;33879;-69
2022/05/26 08:00:20;;;;;;;3.67;1.40;;;;;;;24.47;42.42;100427.44;4363674;32;34257;-67
2022/05/26 08:02:48;;;;;;;3.15;1.48;;;;;;;24.18;46.46;100422.50;4363548;32;33996;-70
2022/05/26 08:05:15;;;;;;;2.12;1.35;;;;;;;24.06;46.23;100423.16;4363546;32;33398;-70
2022/05/26 08:07:43;;;;;;;1.50;1.40;;;;;;;24.66;41.98;100421.56;4350076;32;33763;-67
2022/05/26 08:10:11;;;;;;;1.95;1.50;;;;;;;24.47;43.14;100429.38;4363777;32;34193;-67
2022/05/26 08:12:39;;;;;;;1.90;1.42;;;;;;;24.71;42.98;100424.19;4363288;32;33692;-68
2022/05/26 08:15:07;;;;;;;2.05;1.40;;;;;;;24.90;41.37;100423.03;4363505;32;33248;-67
2022/05/26 08:17:34;;;;;;;2.78;1.50;;;;;;;24.00;43.64;100420.84;4363137;32;34983;-70
2022/05/26 08:20:03;;;;;;;3.25;1.62;;;;;;;23.77;43.77;100415.41;4363739;32;34012;-72
2022/05/26 08:22:30;;;;;;;1.98;1.40;;;;;;;24.47;42.13;100419.13;4363459;32;33848;-67
2022/05/26 08:24:59;;;;;;;1.83;1.30;;;;;;;24.63;43.58;100421.44;4363452;32;34062;-68
2022/05/26 08:27:26;;;;;;;1.45;1.20;;;;;;;24.79;41.96;100421.72;4363202;32;33819;-70
2022/05/26 08:29:54;;;;;;;1.40;1.30;;;;;;;24.83;41.39;100423.53;4363249;32;35030;-66
2022/05/26 08:32:23;;;;;;;2.17;1.05;;;;;;;24.27;41.73;100412.25;4362931;32;34217;-71
2022/05/26 08:34:56;;;;;;;1.90;1.12;;;;;;;24.13;42.88;100406.03;4363083;32;34342;-71
2022/05/26 08:37:24;;;;;;;3.33;1.20;;;;;;;24.10;43.79;100415.81;4363251;32;34813;-70
2022/05/26 08:39:52;;;;;;;2.17;1.30;;;;;;;24.71;41.86;100423.37;4363339;32;35043;-69
2022/05/26 08:42:29;;;;;;;1.20;1.10;;;;;;;24.85;41.26;100420.44;4360264;32;34051;-69
2022/05/26 08:45:09;;;;;;;2.53;1.15;;;;;;;24.43;41.14;100420.06;4350179;32;33488;-69
2022/05/26 08:47:45;;;;;;;3.17;1.10;;;;;;;24.26;42.92;100418.12;4349614;32;34814;-70
2022/05/26 08:50:16;;;;;;;1.48;1.37;;;;;;;24.47;42.76;100419.13;4359040;32;34241;-67
2022/05/26 08:53:16;;;;;;;2.62;1.25;;;;;;;24.66;39.85;100427.13;4363440;32;33984;-68
2022/05/26 08:55:46;;;;;;;1.45;1.17;;;;;;;24.53;42.10;100428.09;4349616;32;33979;-71
2022/05/26 08:58:21;;;;;;;2.22;1.33;;;;;;;24.69;40.42;100429.25;4349448;32;33778;-68
2022/05/26 09:00:51;;;;;;;2.47;1.60;;;;;;;24.51;43.04;100428.47;4349601;32;35033;-69
2022/05/26 09:03:30;;;;;;;2.58;1.23;;;;;;;24.95;38.17;100425.66;4363588;32;34637;-69
2022/05/26 09:06:04;;;;;;;1.65;1.20;;;;;;;24.86;41.06;100433.16;4357437;32;33246;-69
2022/05/26 09:14:02;;;;;;;1.92;1.25;;;;;;;25.32;39.47;100429.66;4357945;32;33946;-70
2022/05/26 09:16:40;;;;;;;1.27;1.10;;;;;;;24.44;39.85;100430.84;4363369;32;34391;-70
2022/05/26 09:19:19;;;;;;;1.23;1.10;;;;;;;24.71;40.15;100440.84;4349861;32;33809;-70
2022/05/26 09:21:49;;;;;;;1.35;1.15;;;;;;;25.21;37.63;100430.37;4363283;32;35106;-70
2022/05/26 09:24:28;;;;;;;2.97;1.12;;;;;;;25.31;38.32;100433.59;4349960;32;33849;-70
2022/05/26 09:27:02;;;;;;;2.92;1.27;;;;;;;25.26;41.36;100430.16;4357411;32;34795;-70
2022/05/26 09:29:32;;;;;;;1.20;1.10;;;;;;;25.30;40.29;100423.63;4362457;32;34218;-70
2022/05/26 09:32:02;;;;;;;1.15;1.05;;;;;;;25.02;39.91;100433.47;4362777;32;34235;-69
2022/05/26 09:35:05;;;;;;;1.08;0.90;;;;;;;25.53;37.16;100426.16;4351541;32;33776;-69
2022/05/26 09:37:44;;;;;;;3.50;1.30;;;;;;;26.11;35.62;100429.31;4362921;32;33251;-70
2022/05/26 09:40:25;;;;;;;3.20;1.27;;;;;;;25.86;35.82;100426.31;4362851;32;33966;-69
2022/05/26 09:42:59;;;;;;;3.33;1.40;;;;;;;26.03;36.34;100430.19;4362917;32;34056;-71
2022/05/26 09:45:45;;;;;;;1.92;1.20;;;;;;;25.38;37.94;100431.13;4362514;32;33714;-69
2022/05/26 09:48:30;;;;;;;1.00;0.90;;;;;;;24.40;38.01;100417.97;4349373;32;33496;-70
2022/05/26 09:51:34;;;;;;;1.08;0.98;;;;;;;25.11;39.95;100423.97;4362676;32;33948;-69
2022/05/26 09:54:20;;;;;;;5.62;1.20;;;;;;;25.33;38.98;100428.50;4359800;32;34921;-71
2022/05/26 09:56:48;;;;;;;1.20;1.10;;;;;;;25.89;33.18;100434.00;4349214;32;33973;-69
2022/05/26 09:59:35;;;;;;;0.95;0.95;;;;;;;25.73;33.50;100427.37;4361688;32;33517;-69
2022/05/26 10:02:11;;;;;;;0.82;0.80;;;;;;;25.80;35.65;100424.88;4343413;32;34697;-70
2022/05/26 10:05:02;;;;;;;1.15;0.90;;;;;;;26.08;32.07;100422.47;4348991;32;34346;-71
2022/05/26 10:07:42;;;;;;;1.10;1.00;;;;;;;26.33;31.97;100436.53;4362748;32;34491;-70
2022/05/26 10:10:19;;;;;;;1.23;1.12;;;;;;;26.28;33.36;100434.75;4362869;32;33139;-70
2022/05/26 10:13:18;;;;;;;1.17;0.90;;;;;;;26.19;33.75;100426.47;4361962;32;34089;-71
2022/05/26 10:15:55;;;;;;;1.95;0.90;;;;;;;25.97;32.85;100424.81;4349073;32;34280;-71
2022/05/26 10:18:29;;;;;;;1.62;1.00;;;;;;;26.10;30.68;100436.03;4362378;32;34006;-70
2022/05/26 10:21:11;;;;;;;0.70;0.70;;;;;;;25.66;31.90;100427.91;4362597;32;34254;-70
2022/05/26 10:24:06;;;;;;;1.25;0.90;;;;;;;25.89;32.19;100425.66;4349055;32;34723;-70
2022/05/26 10:26:46;;;;;;;1.50;0.77;;;;;;;26.42;32.37;100422.56;4362868;32;33986;-70
2022/05/26 10:29:38;;;;;;;0.82;0.70;;;;;;;26.51;30.94;100429.66;4349067;32;33970;-69
2022/05/26 10:32:21;;;;;;;0.88;0.88;;;;;;;26.55;29.97;100424.25;4349147;32;33479;-69
2022/05/26 10:34:54;;;;;;;0.93;0.85;;;;;;;26.85;28.37;100421.41;4347716;33;33990;-70
2022/05/26 10:37:34;;;;;;;1.05;0.90;;;;;;;26.70;29.95;100422.84;4347737;33;33994;-70
2022/05/26 10:40:06;;;;;;;1.67;0.70;;;;;;;26.75;28.76;100412.28;4347817;33;33810;-69
2022/05/26 10:42:38;;;;;;;0.95;0.90;;;;;;;27.02;30.20;100421.22;4341448;32;34285;-70
2022/05/26 10:45:12;;;;;;;1.40;0.80;;;;;;;27.29;27.86;100407.84;4336480;32;32342;-69
2022/05/26 10:47:59;;;;;;;0.88;0.85;;;;;;;27.08;28.62;100424.59;4362243;32;35142;-69
2022/05/26 10:50:36;;;;;;;1.10;0.90;;;;;;;26.89;30.48;100431.50;4349130;32;34802;-69
2022/05/26 10:53:14;;;;;;;1.55;1.10;;;;;;;26.75;30.94;100420.66;4341639;32;225205;-69
2022/05/26 10:56:07;;;;;;;0.90;0.90;;;;;;;27.13;30.27;100424.38;4349000;32;33865;-69
2022/05/26 10:58:42;;;;;;;0.73;0.73;;;;;;;27.28;28.49;100422.91;4342127;32;34202;-70
2022/05/26 11:01:35;;;;;;;1.10;1.00;;;;;;;26.76;29.13;100419.50;4348862;32;33866;-70
2022/05/26 11:04:42;;;;;;;1.55;1.00;;;;;;;26.20;31.76;100418.97;4349001;32;31880;-69
2022/05/26 11:07:16;;;;;;;1.08;0.88;;;;;;;26.10;30.33;100417.38;4362198;32;32778;-67
2022/05/26 11:10:03;;;;;;;0.80;0.80;;;;;;;26.16;31.16;100423.56;4348947;32;34019;-69
2022/05/26 11:12:46;;;;;;;2.40;0.90;;;;;;;26.42;30.88;100414.22;4348586;32;34667;-69
2022/05/26 11:18:33;;;;;;;2.05;1.10;;;;;;;26.73;30.04;100408.22;4335148;32;33906;-69
2022/05/26 11:21:02;;;;;;;1.43;0.97;;;;;;;26.57;31.47;100400.50;4350570;32;34983;-69
2022/05/26 11:23:35;;;;;;;1.20;0.93;;;;;;;26.57;31.96;100392.16;4363920;32;33668;-68
2022/05/26 11:26:07;;;;;;;1.15;1.05;;;;;;;25.91;32.37;100392.78;4364090;32;33229;-70
2022/05/26 11:28:40;;;;;;;1.40;1.08;;;;;;;25.74;32.36;100395.66;4350290;32;33623;-70
2022/05/26 11:37:34;;;;;;;1.92;1.25;;;;;;;26.56;32.35;100392.50;4337989;33;32941;-70
2022/05/26 11:40:06;;;;;;;0.80;0.80;;;;;;;26.92;30.52;100391.81;4348382;33;33990;-70
2022/05/26 11:42:38;;;;;;;0.93;0.93;;;;;;;26.93;31.47;100384.28;4335727;33;35066;-70
2022/05/26 11:45:14;;;;;;;3.28;1.42;;;;;;;26.09;32.21;100376.00;4348917;33;33758;-71
2022/05/26 11:48:01;;;;;;;1.08;0.85;;;;;;;26.66;30.37;100392.09;4360184;32;33344;-70
2022/05/26 11:50:48;;;;;;;1.12;1.00;;;;;;;26.22;31.37;100376.88;4344115;32;33882;-70
2022/05/26 11:53:27;;;;;;;0.93;0.90;;;;;;;27.00;30.68;100370.62;4362514;32;34077;-70
2022/05/26 11:56:03;;;;;;;2.85;1.12;;;;;;;26.66;33.14;100372.59;4362527;32;33387;-70
2022/05/26 11:58:41;;;;;;;0.80;0.80;;;;;;;27.11;30.17;100371.00;4362537;32;33121;-72
2022/05/26 12:01:28;;;;;;;0.90;0.90;;;;;;;27.22;28.63;100366.63;4349166;32;34530;-73
2022/05/26 12:03:56;;;;;;;1.00;0.90;;;;;;;26.71;31.95;100371.56;4352264;32;33944;-71
2022/05/26 12:06:41;;;;;;;1.17;0.90;;;;;;;26.36;30.85;100364.31;4362216;32;33783;-72
2022/05/26 12:09:19;;;;;;;1.02;0.80;;;;;;;26.63;31.32;100370.53;4362628;32;33445;-70
2022/05/26 12:12:28;;;;;;;1.50;1.00;;;;;;;27.38;28.96;100355.59;4362532;32;34751;-71
2022/05/26 12:15:04;;;;;;;1.00;0.80;;;;;;;26.99;29.59;100353.09;4362474;32;34748;-72
2022/05/26 12:17:50;;;;;;;0.95;0.77;;;;;;;26.75;31.02;100358.59;4349154;32;33567;-72
2022/05/26 12:20:18;;;;;;;2.33;1.00;;;;;;;26.90;30.97;100351.56;4349065;32;34287;-72
2022/05/26 12:22:52;;;;;;;1.12;0.95;;;;;;;26.90;30.43;100337.66;4362448;32;33968;-72
2022/05/26 12:25:24;;;;;;;1.20;1.10;;;;;;;26.34;30.56;100346.34;4361926;32;33779;-71
2022/05/26 12:27:53;;;;;;;0.73;0.73;;;;;;;25.88;32.44;100335.09;4348891;32;34672;-68
2022/05/26 12:30:49;;;;;;;0.80;0.80;;;;;;;26.23;31.71;100337.59;4362195;32;33220;-68